Time,TemperatureF,DewpointF,PressureIn,WindDirection,WindDirectionDegrees,WindSpeedMPH,WindSpeedGustMPH,Humidity,HourlyPrecipIn,Conditions,Clouds,dailyrainin,SoftwareType,DateUTC
2013-01-19 00:03:00,39.2,28.9,30.22,South,184,15.9,20.2,66,0.00,,CLR,0.00,VWS V14.01,2013-01-19 05:03:00,
2013-01-19 00:04:00,39.2,28.9,30.22,SSW,195,9.6,12.2,66,0.00,,CLR,0.00,VWS V14.01,2013-01-19 05:04:00,
2013-01-19 00:06:00,39.2,28.9,30.22,South,191,6.6,10.3,66,0.00,,CLR,0.00,VWS V14.01,2013-01-19 05:06:00,
2013-01-19 00:11:00,39.2,28.9,30.19,SSW,206,5.2,11.3,66,0.00,,CLR,0.00,VWS V14.01,2013-01-19 05:11:00,
2013-01-19 00:16:00,39.4,29.1,30.19,SSW,197,5.9,15.0,66,0.00,,CLR,0.00,VWS V14.01,2013-01-19 05:16:00,
2013-01-19 00:21:00,39.4,28.5,30.19,West,260,6.6,12.2,65,0.00,,CLR,0.00,VWS V14.01,2013-01-19 05:21:00,
2013-01-19 00:26:00,39.4,28.5,30.19,WSW,252,8.9,22.1,65,0.00,,CLR,0.00,VWS V14.01,2013-01-19 05:26:00,
2013-01-19 00:31:00,39.7,28.8,30.19,South,171,13.3,16.9,65,0.00,,CLR,0.00,VWS V14.01,2013-01-19 05:31:00,
2013-01-19 00:36:00,39.7,28.1,30.19,SSW,208,5.9,7.5,63,0.00,,CLR,0.00,VWS V14.01,2013-01-19 05:36:00,
2013-01-19 00:41:00,39.7,28.1,30.19,WSW,249,12.5,23.0,63,0.00,,CLR,0.00,VWS V14.01,2013-01-19 05:41:00,
2013-01-19 00:46:00,39.9,27.7,30.19,South,178,6.6,13.2,61,0.00,,CLR,0.00,VWS V14.01,2013-01-19 05:46:00,
2013-01-19 00:52:00,39.9,27.7,30.19,South,170,8.9,16.0,61,0.00,,CLR,0.00,VWS V14.01,2013-01-19 05:52:00,
2013-01-19 00:57:00,39.9,27.7,30.19,WSW,247,5.2,23.0,61,0.00,,CLR,0.00,VWS V14.01,2013-01-19 05:57:00,
2013-01-19 01:02:00,40.3,27.3,30.19,South,183,5.9,11.3,60,0.00,,CLR,0.00,VWS V14.01,2013-01-19 06:02:00,
2013-01-19 01:07:00,40.5,27.5,30.19,SSW,194,6.6,12.2,60,0.00,,CLR,0.00,VWS V14.01,2013-01-19 06:07:00,
2013-01-19 01:12:00,40.5,27.5,30.19,SSW,193,12.5,16.9,60,0.00,,CLR,0.00,VWS V14.01,2013-01-19 06:12:00,
2013-01-19 01:17:00,40.3,27.3,30.19,SSW,195,4.4,7.5,60,0.00,,CLR,0.00,VWS V14.01,2013-01-19 06:17:00,
2013-01-19 01:22:00,40.3,27.3,30.19,SSW,205,5.9,13.2,60,0.00,,CLR,0.00,VWS V14.01,2013-01-19 06:22:00,
2013-01-19 01:27:00,40.1,27.1,30.19,SSW,206,5.9,13.2,60,0.00,,CLR,0.00,VWS V14.01,2013-01-19 06:27:00,
2013-01-19 01:32:00,39.9,27.0,30.19,WSW,253,8.1,10.3,60,0.00,,CLR,0.00,VWS V14.01,2013-01-19 06:32:00,
2013-01-19 01:38:00,39.9,27.0,30.19,SSW,196,5.2,12.2,60,0.00,,CLR,0.00,VWS V14.01,2013-01-19 06:38:00,
2013-01-19 01:43:00,39.7,26.8,30.19,SSW,193,8.1,12.2,60,0.00,,CLR,0.00,VWS V14.01,2013-01-19 06:43:00,
2013-01-19 01:48:00,39.9,27.0,30.19,South,180,4.4,8.5,60,0.00,,CLR,0.00,VWS V14.01,2013-01-19 06:48:00,
2013-01-19 01:53:00,39.9,27.0,30.19,South,178,8.1,10.3,60,0.00,,CLR,0.00,VWS V14.01,2013-01-19 06:53:00,
2013-01-19 01:58:00,40.1,27.1,30.19,South,189,5.9,11.3,60,0.00,,CLR,0.00,VWS V14.01,2013-01-19 06:58:00,
2013-01-19 02:03:00,40.1,27.1,30.19,South,176,5.2,12.2,60,0.00,,CLR,0.00,VWS V14.01,2013-01-19 07:03:00,
2013-01-19 02:08:00,40.1,27.1,30.19,SSW,197,9.6,12.2,60,0.00,,CLR,0.00,VWS V14.01,2013-01-19 07:08:00,
2013-01-19 02:13:00,40.3,27.3,30.19,SSW,195,8.9,11.3,60,0.00,,CLR,0.00,VWS V14.01,2013-01-19 07:13:00,
2013-01-19 02:18:00,40.5,27.5,30.19,SSE,166,5.2,14.1,60,0.00,,CLR,0.00,VWS V14.01,2013-01-19 07:18:00,
2013-01-19 02:23:00,40.5,27.5,30.19,SSW,197,6.6,13.2,60,0.00,,CLR,0.00,VWS V14.01,2013-01-19 07:23:00,
2013-01-19 02:28:00,40.5,27.5,30.19,SW,216,4.4,16.9,60,0.00,,CLR,0.00,VWS V14.01,2013-01-19 07:28:00,
2013-01-19 02:34:00,40.3,27.3,30.19,SW,219,6.6,15.0,60,0.00,,CLR,0.00,VWS V14.01,2013-01-19 07:34:00,
2013-01-19 02:39:00,40.3,27.3,30.19,SW,223,8.1,16.9,60,0.00,,CLR,0.00,VWS V14.01,2013-01-19 07:39:00,
2013-01-19 02:44:00,40.3,27.3,30.19,WSW,248,10.3,13.2,60,0.00,,CLR,0.00,VWS V14.01,2013-01-19 07:44:00,
2013-01-19 02:49:00,40.3,27.3,30.19,SSW,208,8.9,11.3,60,0.00,,CLR,0.00,VWS V14.01,2013-01-19 07:49:00,
2013-01-19 02:54:00,40.5,27.5,30.19,SSW,197,10.3,13.2,60,0.00,,CLR,0.00,VWS V14.01,2013-01-19 07:54:00,
2013-01-19 02:59:00,40.5,26.8,30.22,SSW,205,13.7,17.4,58,0.00,,CLR,0.00,VWS V14.01,2013-01-19 07:59:00,
2013-01-19 03:04:00,40.5,26.8,30.22,SW,216,5.2,8.5,58,0.00,,CLR,0.00,VWS V14.01,2013-01-19 08:04:00,
2013-01-19 03:09:00,40.5,26.8,30.22,WSW,252,9.6,13.2,58,0.00,,CLR,0.00,VWS V14.01,2013-01-19 08:09:00,
2013-01-19 03:14:00,40.3,26.6,30.19,SSW,212,5.2,8.5,58,0.00,,CLR,0.00,VWS V14.01,2013-01-19 08:14:00,
2013-01-19 03:19:00,40.3,26.6,30.19,SSW,201,3.7,10.3,58,0.00,,CLR,0.00,VWS V14.01,2013-01-19 08:19:00,
2013-01-19 03:24:00,40.6,27.0,30.22,SSW,200,13.7,17.4,58,0.00,,CLR,0.00,VWS V14.01,2013-01-19 08:24:00,
2013-01-19 03:30:00,40.6,27.0,30.22,WSW,241,5.9,12.2,58,0.00,,CLR,0.00,VWS V14.01,2013-01-19 08:30:00,
2013-01-19 03:35:00,40.6,26.2,30.22,West,266,10.3,13.2,56,0.00,,CLR,0.00,VWS V14.01,2013-01-19 08:35:00,
2013-01-19 03:40:00,40.6,26.2,30.19,SSW,196,6.6,11.3,56,0.00,,CLR,0.00,VWS V14.01,2013-01-19 08:40:00,
2013-01-19 03:45:00,40.8,26.4,30.19,South,186,11.1,17.4,56,0.00,,CLR,0.00,VWS V14.01,2013-01-19 08:45:00,
2013-01-19 03:50:00,41.2,26.0,30.19,SSW,194,6.6,10.3,54,0.00,,CLR,0.00,VWS V14.01,2013-01-19 08:50:00,
2013-01-19 03:55:00,41.4,26.2,30.19,SSW,206,6.6,10.3,54,0.00,,CLR,0.00,VWS V14.01,2013-01-19 08:55:00,
2013-01-19 04:00:00,41.5,26.3,30.19,South,176,11.1,21.1,54,0.00,,CLR,0.00,VWS V14.01,2013-01-19 09:00:00,
2013-01-19 04:05:00,41.9,26.7,30.19,SW,236,9.6,12.2,54,0.00,,CLR,0.00,VWS V14.01,2013-01-19 09:05:00,
2013-01-19 04:10:00,41.9,26.7,30.19,SW,236,17.3,22.1,54,0.00,,CLR,0.00,VWS V14.01,2013-01-19 09:10:00,
2013-01-19 04:15:00,42.1,26.8,30.19,SSW,198,8.1,13.2,54,0.00,,CLR,0.00,VWS V14.01,2013-01-19 09:15:00,
2013-01-19 04:21:00,42.1,26.8,30.19,SSW,193,8.9,16.0,54,0.00,,CLR,0.00,VWS V14.01,2013-01-19 09:21:00,
2013-01-19 04:26:00,42.1,26.8,30.19,South,191,6.6,11.3,54,0.00,,CLR,0.00,VWS V14.01,2013-01-19 09:26:00,
2013-01-19 04:31:00,41.9,26.7,30.19,SSW,205,8.9,11.3,54,0.00,,CLR,0.00,VWS V14.01,2013-01-19 09:31:00,
2013-01-19 04:36:00,41.5,26.3,30.19,South,181,6.6,10.3,54,0.00,,CLR,0.00,VWS V14.01,2013-01-19 09:36:00,
2013-01-19 04:42:00,41.4,26.2,30.19,West,273,9.6,18.3,54,0.00,,CLR,0.00,VWS V14.01,2013-01-19 09:42:00,
2013-01-19 04:47:00,41.4,26.2,30.19,SSW,213,8.1,10.3,54,0.00,,CLR,0.00,VWS V14.01,2013-01-19 09:47:00,
2013-01-19 04:52:00,41.2,26.7,30.19,SSW,204,6.6,9.4,56,0.00,,CLR,0.00,VWS V14.01,2013-01-19 09:52:00,
2013-01-19 04:57:00,40.8,26.4,30.19,SW,219,8.9,13.2,56,0.00,,CLR,0.00,VWS V14.01,2013-01-19 09:57:00,
2013-01-19 05:02:00,40.6,27.0,30.19,South,177,5.9,17.4,58,0.00,,CLR,0.00,VWS V14.01,2013-01-19 10:02:00,
2013-01-19 05:07:00,40.3,27.3,30.19,SSW,200,12.5,18.3,60,0.00,,CLR,0.00,VWS V14.01,2013-01-19 10:07:00,
2013-01-19 05:13:00,40.1,27.1,30.19,NNW,341,9.6,12.2,60,0.00,,CLR,0.00,VWS V14.01,2013-01-19 10:13:00,
2013-01-19 05:18:00,40.1,27.1,30.19,WNW,292,6.6,8.5,60,0.00,,CLR,0.00,VWS V14.01,2013-01-19 10:18:00,
2013-01-19 05:23:00,39.9,27.7,30.19,SSW,193,5.2,6.6,61,0.00,,CLR,0.00,VWS V14.01,2013-01-19 10:23:00,
2013-01-19 05:28:00,39.7,27.5,30.19,SSE,167,8.9,11.3,61,0.00,,CLR,0.00,VWS V14.01,2013-01-19 10:28:00,
2013-01-19 05:33:00,39.7,28.1,30.19,South,189,5.2,11.3,63,0.00,,CLR,0.00,VWS V14.01,2013-01-19 10:33:00,
2013-01-19 05:38:00,39.6,28.0,30.19,SSW,193,9.6,12.2,63,0.00,,CLR,0.00,VWS V14.01,2013-01-19 10:38:00,
2013-01-19 05:43:00,39.4,28.5,30.19,South,187,6.6,8.5,65,0.00,,CLR,0.00,VWS V14.01,2013-01-19 10:43:00,
2013-01-19 05:48:00,39.4,28.5,30.19,West,262,5.9,11.3,65,0.00,,CLR,0.00,VWS V14.01,2013-01-19 10:48:00,
2013-01-19 05:53:00,39.2,28.3,30.19,WSW,239,8.9,11.3,65,0.00,,CLR,0.00,VWS V14.01,2013-01-19 10:53:00,
2013-01-19 05:58:00,39.2,28.3,30.19,SW,229,10.3,13.2,65,0.00,,CLR,0.00,VWS V14.01,2013-01-19 10:58:00,
2013-01-19 06:03:00,39.2,28.9,30.19,SW,219,4.4,13.2,66,0.00,,CLR,0.00,VWS V14.01,2013-01-19 11:03:00,
2013-01-19 06:08:00,39.2,28.3,30.19,ESE,108,4.4,7.5,65,0.00,,CLR,0.00,VWS V14.01,2013-01-19 11:08:00,
2013-01-19 06:13:00,39.2,28.3,30.19,West,276,6.6,18.3,65,0.00,,CLR,0.00,VWS V14.01,2013-01-19 11:13:00,
2013-01-19 07:47:00,39.0,28.8,30.16,SE,146,4.4,8.5,66,0.00,,CLR,0.00,VWS V14.01,2013-01-19 12:47:00,
2013-01-19 07:48:00,39.0,28.8,30.16,SSW,209,6.6,8.5,66,0.00,,CLR,0.00,VWS V14.01,2013-01-19 12:48:00,
2013-01-19 07:49:00,39.0,28.8,30.16,WSW,247,8.1,10.3,66,0.00,,CLR,0.00,VWS V14.01,2013-01-19 12:49:00,
2013-01-19 07:54:00,39.0,28.8,30.16,WSW,239,9.6,12.2,66,0.00,,CLR,0.00,VWS V14.01,2013-01-19 12:54:00,
2013-01-19 08:00:00,38.8,28.6,30.16,SW,232,4.4,11.3,66,0.00,,CLR,0.00,VWS V14.01,2013-01-19 13:00:00,
2013-01-19 08:05:00,38.8,28.6,30.16,NW,308,12.5,16.0,66,0.00,,CLR,0.00,VWS V14.01,2013-01-19 13:05:00,
2013-01-19 08:10:00,38.8,29.2,30.16,West,272,9.6,16.0,68,0.00,,CLR,0.00,VWS V14.01,2013-01-19 13:10:00,
2013-01-19 08:15:00,38.8,29.2,30.16,SSW,208,8.9,11.3,68,0.00,,CLR,0.00,VWS V14.01,2013-01-19 13:15:00,
2013-01-19 08:20:00,38.8,29.2,30.16,WSW,257,4.4,16.0,68,0.00,,CLR,0.00,VWS V14.01,2013-01-19 13:20:00,
2013-01-19 08:25:00,38.8,29.2,30.16,SSW,199,10.3,17.4,68,0.00,,CLR,0.00,VWS V14.01,2013-01-19 13:25:00,
2013-01-19 08:31:00,39.2,29.5,30.16,WSW,252,5.9,8.5,68,0.00,,CLR,0.00,VWS V14.01,2013-01-19 13:31:00,
2013-01-19 08:36:00,39.4,29.7,30.16,SW,236,5.2,6.6,68,0.00,,CLR,0.00,VWS V14.01,2013-01-19 13:36:00,
2013-01-19 08:41:00,39.7,30.1,30.16,SSW,202,8.9,12.2,68,0.00,,CLR,0.00,VWS V14.01,2013-01-19 13:41:00,
2013-01-19 08:46:00,39.9,30.2,30.16,SSW,193,11.8,22.1,68,0.00,,CLR,0.00,VWS V14.01,2013-01-19 13:46:00,
2013-01-19 08:51:00,40.1,30.4,30.16,South,169,13.7,17.4,68,0.00,,CLR,0.00,VWS V14.01,2013-01-19 13:51:00,
2013-01-19 08:56:00,40.3,30.6,30.16,West,262,10.3,13.2,68,0.00,,CLR,0.00,VWS V14.01,2013-01-19 13:56:00,
2013-01-19 09:01:00,40.5,30.8,30.16,SSW,202,11.8,16.0,68,0.00,,CLR,0.00,VWS V14.01,2013-01-19 14:01:00,
2013-01-19 09:06:00,40.6,30.9,30.16,South,189,14.4,18.3,68,0.00,,CLR,0.00,VWS V14.01,2013-01-19 14:06:00,
2013-01-19 09:12:00,40.6,30.3,30.16,South,172,12.5,16.0,66,0.00,,CLR,0.00,VWS V14.01,2013-01-19 14:12:00,
2013-01-19 09:17:00,41.0,30.6,30.16,South,180,11.8,24.0,66,0.00,,CLR,0.00,VWS V14.01,2013-01-19 14:17:00,
2013-01-19 09:22:00,41.2,30.8,30.16,SSW,192,6.6,16.0,66,0.00,,CLR,0.00,VWS V14.01,2013-01-19 14:22:00,
2013-01-19 09:27:00,41.5,31.1,30.16,WSW,248,8.9,17.4,66,0.00,,CLR,0.00,VWS V14.01,2013-01-19 14:27:00,
2013-01-19 09:32:00,41.7,31.3,30.16,WNW,297,6.6,10.3,66,0.00,,CLR,0.00,VWS V14.01,2013-01-19 14:32:00,
2013-01-19 09:37:00,41.9,31.5,30.16,SSW,195,17.3,22.1,66,0.00,,CLR,0.00,VWS V14.01,2013-01-19 14:37:00,
2013-01-19 09:42:00,42.1,31.7,30.16,West,274,6.6,22.1,66,0.00,,CLR,0.00,VWS V14.01,2013-01-19 14:42:00,
2013-01-19 09:47:00,42.3,31.8,30.16,West,272,10.3,15.0,66,0.00,,CLR,0.00,VWS V14.01,2013-01-19 14:47:00,
2013-01-19 09:53:00,42.4,32.0,30.16,WSW,239,9.6,17.4,66,0.00,,CLR,0.00,VWS V14.01,2013-01-19 14:53:00,
2013-01-19 09:58:00,42.8,31.7,30.16,SW,226,3.7,31.5,65,0.00,,CLR,0.00,VWS V14.01,2013-01-19 14:58:00,
2013-01-19 10:03:00,43.2,32.0,30.16,South,182,10.3,17.4,65,0.00,,CLR,0.00,VWS V14.01,2013-01-19 15:03:00,
2013-01-19 10:08:00,43.5,32.4,30.16,WSW,249,8.9,25.8,65,0.00,,CLR,0.00,VWS V14.01,2013-01-19 15:08:00,
2013-01-19 10:13:00,43.7,32.6,30.16,South,186,10.3,15.0,65,0.00,,CLR,0.00,VWS V14.01,2013-01-19 15:13:00,
2013-01-19 10:18:00,44.1,32.9,30.16,SSW,198,13.3,26.8,65,0.00,,CLR,0.00,VWS V14.01,2013-01-19 15:18:00,
2013-01-19 10:23:00,44.6,32.8,30.16,WSW,241,15.9,22.1,63,0.00,,CLR,0.00,VWS V14.01,2013-01-19 15:23:00,
2013-01-19 10:28:00,44.8,32.9,30.16,South,174,13.7,27.7,63,0.00,,CLR,0.00,VWS V14.01,2013-01-19 15:28:00,
2013-01-19 10:34:00,45.0,33.1,30.16,South,177,8.9,22.1,63,0.00,,CLR,0.00,VWS V14.01,2013-01-19 15:34:00,
2013-01-19 10:39:00,45.3,33.4,30.16,WSW,258,5.2,27.7,63,0.00,,FEW220,0.00,VWS V14.01,2013-01-19 15:39:00,
2013-01-19 10:44:00,45.5,33.6,30.13,South,179,19.6,24.9,63,0.00,,FEW220,0.00,VWS V14.01,2013-01-19 15:44:00,
2013-01-19 10:49:00,45.9,33.3,30.13,WSW,244,14.4,18.3,61,0.00,,FEW220,0.00,VWS V14.01,2013-01-19 15:49:00,
2013-01-19 10:54:00,46.2,32.9,30.13,SW,219,8.9,17.4,60,0.00,,FEW220,0.00,VWS V14.01,2013-01-19 15:54:00,
2013-01-19 10:59:00,46.6,32.5,30.16,SSW,198,10.3,16.0,58,0.00,,FEW220,0.00,VWS V14.01,2013-01-19 15:59:00,
2013-01-19 11:04:00,46.9,32.9,30.16,SW,231,5.9,13.2,58,0.00,,FEW220,0.00,VWS V14.01,2013-01-19 16:04:00,
2013-01-19 11:10:00,47.1,33.0,30.16,West,276,4.4,13.2,58,0.00,,FEW220,0.00,VWS V14.01,2013-01-19 16:10:00,
2013-01-19 11:15:00,47.3,32.5,30.13,South,188,9.6,12.2,56,0.00,,FEW220,0.00,VWS V14.01,2013-01-19 16:15:00,
2013-01-19 11:20:00,47.5,32.6,30.13,South,175,13.3,16.9,56,0.00,,FEW220,0.00,VWS V14.01,2013-01-19 16:20:00,
2013-01-19 11:25:00,47.8,33.0,30.13,SSW,196,6.6,20.2,56,0.00,,FEW220,0.00,VWS V14.01,2013-01-19 16:25:00,
2013-01-19 11:30:00,48.0,33.1,30.13,SE,146,21.8,27.7,56,0.00,,FEW220,0.00,VWS V14.01,2013-01-19 16:30:00,
2013-01-19 11:35:00,48.2,32.5,30.13,WSW,243,13.7,17.4,54,0.00,,FEW220,0.00,VWS V14.01,2013-01-19 16:35:00,
2013-01-19 11:40:00,48.4,32.7,30.13,SSE,163,6.6,30.5,54,0.00,,FEW220,0.00,VWS V14.01,2013-01-19 16:40:00,
2013-01-19 11:45:00,48.7,33.0,30.13,West,265,8.1,27.7,54,0.00,,FEW220,0.00,VWS V14.01,2013-01-19 16:45:00,
2013-01-19 11:50:00,48.7,33.0,30.13,SSE,153,9.6,16.0,54,0.00,,FEW220,0.00,VWS V14.01,2013-01-19 16:50:00,
2013-01-19 11:55:00,48.9,33.2,30.10,SE,141,10.3,18.3,54,0.00,,FEW220,0.00,VWS V14.01,2013-01-19 16:55:00,
2013-01-19 12:00:00,49.3,33.5,30.10,South,170,9.6,18.3,54,0.00,,FEW220,0.00,VWS V14.01,2013-01-19 17:00:00,
2013-01-19 12:05:00,49.3,32.8,30.10,WSW,256,5.2,23.0,53,0.00,,FEW220,0.00,VWS V14.01,2013-01-19 17:05:00,
2013-01-19 12:11:00,49.5,33.7,30.10,SSE,162,13.3,16.9,54,0.00,,FEW220,0.00,VWS V14.01,2013-01-19 17:11:00,
2013-01-19 12:16:00,49.8,34.0,30.10,South,185,15.9,23.0,54,0.00,,FEW220,0.00,VWS V14.01,2013-01-19 17:16:00,
2013-01-19 12:22:00,50.0,34.2,30.10,SSE,149,10.3,13.2,54,0.00,,FEW220,0.00,VWS V14.01,2013-01-19 17:22:00,
2013-01-19 12:27:00,50.2,33.6,30.07,SSE,153,9.6,12.2,53,0.00,,FEW220,0.00,VWS V14.01,2013-01-19 17:27:00,
2013-01-19 12:32:00,50.2,34.4,30.07,South,191,13.7,26.8,54,0.00,,FEW220,0.00,VWS V14.01,2013-01-19 17:32:00,
2013-01-19 12:37:00,50.0,33.4,30.07,SSW,193,8.9,18.3,53,0.00,,FEW220,0.00,VWS V14.01,2013-01-19 17:37:00,
2013-01-19 12:42:00,50.4,33.8,30.07,SSW,196,18.1,23.0,53,0.00,,FEW220,0.00,VWS V14.01,2013-01-19 17:42:00,
2013-01-19 12:48:00,50.2,33.6,30.07,South,187,7.4,16.9,53,0.00,,FEW220,0.00,VWS V14.01,2013-01-19 17:48:00,
2013-01-19 12:53:00,50.2,33.6,30.07,SSW,200,8.9,25.8,53,0.00,,FEW220,0.00,VWS V14.01,2013-01-19 17:53:00,
2013-01-19 12:58:00,50.5,33.9,30.04,West,273,10.3,18.3,53,0.00,,FEW220,0.00,VWS V14.01,2013-01-19 17:58:00,
2013-01-19 13:03:00,50.4,32.9,30.04,WSW,252,6.6,18.3,51,0.00,,FEW220,0.00,VWS V14.01,2013-01-19 18:03:00,
2013-01-19 13:10:00,50.5,33.9,30.04,SW,230,25.5,32.4,53,0.00,,FEW220,0.00,VWS V14.01,2013-01-19 18:10:00,
2013-01-19 13:15:00,50.7,33.3,30.04,WSW,245,13.7,17.4,51,0.00,,FEW220,0.00,VWS V14.01,2013-01-19 18:15:00,
2013-01-19 13:20:00,50.9,34.2,30.04,West,267,10.3,13.2,53,0.00,,FEW220,0.00,VWS V14.01,2013-01-19 18:20:00,
2013-01-19 13:25:00,51.1,34.4,30.04,SE,139,5.2,12.2,53,0.00,,FEW220,0.00,VWS V14.01,2013-01-19 18:25:00,
2013-01-19 13:31:00,51.3,34.6,30.04,West,260,11.8,22.1,53,0.00,,FEW220,0.00,VWS V14.01,2013-01-19 18:31:00,
2013-01-19 13:37:00,51.4,33.9,30.04,South,184,16.6,22.1,51,0.00,,FEW220,0.00,VWS V14.01,2013-01-19 18:37:00,
2013-01-19 13:42:00,51.6,34.9,30.01,SW,215,6.6,16.0,53,0.00,,FEW220,0.00,VWS V14.01,2013-01-19 18:42:00,
2013-01-19 13:47:00,51.6,34.9,30.01,WSW,247,8.9,16.9,53,0.00,,FEW220,0.00,VWS V14.01,2013-01-19 18:47:00,
2013-01-19 13:52:00,52.0,34.4,30.01,South,182,17.3,22.1,51,0.00,,FEW220,0.00,VWS V14.01,2013-01-19 18:52:00,
2013-01-19 13:57:00,52.0,34.4,30.01,SSW,198,18.8,24.0,51,0.00,,FEW220,0.00,VWS V14.01,2013-01-19 18:57:00,
2013-01-19 14:02:00,52.2,34.6,30.01,SW,214,13.7,23.0,51,0.00,,FEW220,0.00,VWS V14.01,2013-01-19 19:02:00,
2013-01-19 14:08:00,52.3,34.8,30.01,West,279,11.8,17.4,51,0.00,,FEW220,0.00,VWS V14.01,2013-01-19 19:08:00,
2013-01-19 14:13:00,52.9,35.3,30.01,SSE,167,13.3,30.5,51,0.00,,FEW220,0.00,VWS V14.01,2013-01-19 19:13:00,
2013-01-19 14:18:00,53.1,35.4,30.01,WSW,237,10.3,22.1,51,0.00,,FEW220,0.00,VWS V14.01,2013-01-19 19:18:00,
2013-01-19 14:25:00,53.1,35.4,30.01,SSE,163,13.7,17.4,51,0.00,,FEW220,0.00,VWS V14.01,2013-01-19 19:25:00,
2013-01-19 14:30:00,53.4,35.8,30.01,SSE,154,12.5,22.1,51,0.00,,FEW220,0.00,VWS V14.01,2013-01-19 19:30:00,
2013-01-19 14:35:00,53.6,35.1,30.01,SSE,167,8.9,17.4,49,0.00,,FEW220,0.00,VWS V14.01,2013-01-19 19:35:00,
2013-01-19 14:40:00,53.6,35.1,29.98,WSW,245,10.3,21.1,49,0.00,,FEW220,0.00,VWS V14.01,2013-01-19 19:40:00,
2013-01-19 14:45:00,53.6,35.1,29.98,West,274,10.3,21.1,49,0.00,,FEW220,0.00,VWS V14.01,2013-01-19 19:45:00,
2013-01-19 14:51:00,53.6,34.2,29.98,SE,133,15.9,20.2,48,0.00,,FEW220,0.00,VWS V14.01,2013-01-19 19:51:00,
2013-01-19 14:56:00,53.8,35.2,29.98,South,181,5.9,18.3,49,0.00,,FEW220,0.00,VWS V14.01,2013-01-19 19:56:00,
2013-01-19 15:02:00,54.0,35.4,29.98,South,177,13.7,27.7,49,0.00,,FEW220,0.00,VWS V14.01,2013-01-19 20:02:00,
2013-01-19 15:06:00,54.0,35.4,29.98,SSW,201,18.1,23.0,49,0.00,,FEW220,0.00,VWS V14.01,2013-01-19 20:06:00,
2013-01-19 15:12:00,54.1,35.6,29.98,South,180,5.2,16.9,49,0.00,,FEW220,0.00,VWS V14.01,2013-01-19 20:12:00,
2013-01-19 15:17:00,54.3,35.7,29.98,SSE,164,5.9,16.0,49,0.00,,FEW220,0.00,VWS V14.01,2013-01-19 20:17:00,
2013-01-19 15:22:00,54.3,35.7,29.98,SSE,164,14.4,21.1,49,0.00,,FEW220,0.00,VWS V14.01,2013-01-19 20:22:00,
2013-01-19 15:27:00,54.3,35.7,29.95,South,185,10.3,19.3,49,0.00,,FEW220,0.00,VWS V14.01,2013-01-19 20:27:00,
2013-01-19 15:32:00,54.3,34.8,29.95,South,176,8.9,22.1,48,0.00,,FEW220,0.00,VWS V14.01,2013-01-19 20:32:00,
2013-01-19 15:37:00,54.3,34.8,29.95,SW,220,19.6,24.9,48,0.00,,FEW220,0.00,VWS V14.01,2013-01-19 20:37:00,
2013-01-19 15:42:00,54.3,34.8,29.95,South,187,5.2,13.2,48,0.00,,FEW220,0.00,VWS V14.01,2013-01-19 20:42:00,
2013-01-19 15:47:00,54.3,34.8,29.95,SSW,212,6.6,13.2,48,0.00,,FEW220,0.00,VWS V14.01,2013-01-19 20:47:00,
2013-01-19 15:52:00,54.3,34.8,29.95,SW,215,13.7,18.3,48,0.00,,FEW220,0.00,VWS V14.01,2013-01-19 20:52:00,
2013-01-19 15:58:00,54.3,34.8,29.95,South,171,16.6,21.1,48,0.00,,FEW220,0.00,VWS V14.01,2013-01-19 20:58:00,
2013-01-19 16:03:00,54.1,34.7,29.95,SSW,195,21.8,32.4,48,0.00,,FEW220,0.00,VWS V14.01,2013-01-19 21:03:00,
2013-01-19 16:09:00,54.0,34.5,29.95,South,190,8.9,17.4,48,0.00,,FEW220,0.00,VWS V14.01,2013-01-19 21:09:00,
2013-01-19 16:14:00,54.1,35.6,29.95,SW,221,13.7,22.1,49,0.00,,FEW220,0.00,VWS V14.01,2013-01-19 21:14:00,
2013-01-19 16:20:00,54.0,34.5,29.95,WSW,252,13.3,26.8,48,0.00,,FEW220,0.00,VWS V14.01,2013-01-19 21:20:00,
2013-01-19 16:25:00,54.0,34.5,29.95,SSW,196,10.3,24.9,48,0.00,,FEW220,0.00,VWS V14.01,2013-01-19 21:25:00,
2013-01-19 16:31:00,53.8,34.4,29.95,SSW,213,10.3,13.2,48,0.00,,FEW220,0.00,VWS V14.01,2013-01-19 21:31:00,
2013-01-19 16:38:00,53.8,34.4,29.95,SSE,167,17.3,23.0,48,0.00,,SCT220,0.00,VWS V14.01,2013-01-19 21:38:00,
2013-01-19 16:42:00,53.6,34.2,29.95,SSW,197,12.5,20.2,48,0.00,,SCT220,0.00,VWS V14.01,2013-01-19 21:42:00,
2013-01-19 16:48:00,53.4,34.9,29.95,SSW,193,12.5,16.0,49,0.00,,SCT220,0.00,VWS V14.01,2013-01-19 21:48:00,
2013-01-19 16:53:00,53.4,34.9,29.95,SSW,200,9.6,23.0,49,0.00,,SCT220,0.00,VWS V14.01,2013-01-19 21:53:00,
2013-01-19 16:58:00,53.2,34.7,29.92,SSW,211,15.9,20.2,49,0.00,,SCT220,0.00,VWS V14.01,2013-01-19 21:58:00,
2013-01-19 17:04:00,53.2,34.7,29.92,SW,217,14.4,25.8,49,0.00,,SCT220,0.00,VWS V14.01,2013-01-19 22:04:00,
2013-01-19 17:09:00,53.1,34.6,29.92,South,179,18.1,26.8,49,0.00,,SCT220,0.00,VWS V14.01,2013-01-19 22:09:00,
2013-01-19 17:15:00,53.1,34.6,29.92,SSW,199,12.5,18.3,49,0.00,,SCT220,0.00,VWS V14.01,2013-01-19 22:15:00,
2013-01-19 17:20:00,52.7,34.2,29.92,SW,218,6.6,8.5,49,0.00,,SCT220,0.00,VWS V14.01,2013-01-19 22:20:00,
2013-01-19 17:25:00,52.5,34.1,29.92,South,177,6.6,10.3,49,0.00,,SCT220,0.00,VWS V14.01,2013-01-19 22:25:00,
2013-01-19 17:30:00,52.2,33.8,29.92,South,174,18.1,23.0,49,0.00,,SCT220,0.00,VWS V14.01,2013-01-19 22:30:00,
2013-01-19 17:35:00,52.0,33.6,29.92,SW,215,9.6,16.9,49,0.00,,BKN220,0.00,VWS V14.01,2013-01-19 22:35:00,
2013-01-19 17:40:00,51.8,33.4,29.92,SW,214,10.3,13.2,49,0.00,,BKN220,0.00,VWS V14.01,2013-01-19 22:40:00,
2013-01-19 17:45:00,51.6,34.1,29.92,South,177,9.6,13.2,51,0.00,,BKN220,0.00,VWS V14.01,2013-01-19 22:45:00,
2013-01-19 17:50:00,51.6,34.1,29.92,WNW,289,6.6,17.4,51,0.00,,BKN220,0.00,VWS V14.01,2013-01-19 22:50:00,
2013-01-19 17:56:00,51.4,33.9,29.95,WSW,239,12.5,20.2,51,0.00,,BKN220,0.00,VWS V14.01,2013-01-19 22:56:00,
2013-01-19 18:02:00,51.4,33.9,29.95,SW,214,7.4,16.9,51,0.00,,BKN220,0.00,VWS V14.01,2013-01-19 23:02:00,
2013-01-19 18:08:00,51.4,33.9,29.95,SW,226,11.1,14.1,51,0.00,,BKN220,0.00,VWS V14.01,2013-01-19 23:08:00,
2013-01-19 18:13:00,51.3,33.8,29.95,South,189,6.6,11.3,51,0.00,,BKN220,0.00,VWS V14.01,2013-01-19 23:13:00,
2013-01-19 18:18:00,51.3,33.8,29.95,West,279,4.4,7.5,51,0.00,,BKN220,0.00,VWS V14.01,2013-01-19 23:18:00,
2013-01-19 18:23:00,51.1,33.6,29.95,SSW,211,13.7,18.3,51,0.00,,BKN220,0.00,VWS V14.01,2013-01-19 23:23:00,
2013-01-19 18:29:00,51.8,33.4,29.95,South,177,6.6,11.3,49,0.00,,BKN220,0.00,VWS V14.01,2013-01-19 23:29:00,
2013-01-19 18:34:00,52.3,33.9,29.95,SSW,198,5.2,16.0,49,0.00,,BKN220,0.00,VWS V14.01,2013-01-19 23:34:00,
2013-01-19 18:39:00,52.3,33.9,29.95,SW,216,12.5,16.0,49,0.00,,BKN220,0.00,VWS V14.01,2013-01-19 23:39:00,
2013-01-19 18:44:00,52.3,33.9,29.95,South,184,9.6,12.2,49,0.00,,BKN220,0.00,VWS V14.01,2013-01-19 23:44:00,
2013-01-19 18:50:00,52.0,33.6,29.95,SSW,206,11.1,15.0,49,0.00,,BKN220,0.00,VWS V14.01,2013-01-19 23:50:00,
2013-01-19 18:55:00,51.8,33.4,29.95,SSW,207,8.9,11.3,49,0.00,,BKN220,0.00,VWS V14.01,2013-01-19 23:55:00,
2013-01-19 19:00:00,51.6,33.2,29.95,South,185,9.6,12.2,49,0.00,,BKN220,0.00,VWS V14.01,2013-01-20 00:00:00,
2013-01-19 19:05:00,51.4,33.1,29.95,SW,220,5.2,12.2,49,0.00,,BKN220,0.00,VWS V14.01,2013-01-20 00:05:00,
2013-01-19 19:10:00,51.6,33.2,29.95,SSE,152,8.9,11.3,49,0.00,,CLR,0.00,VWS V14.01,2013-01-20 00:10:00,
2013-01-19 19:15:00,52.2,33.8,29.95,SSW,211,5.2,11.3,49,0.00,,CLR,0.00,VWS V14.01,2013-01-20 00:15:00,
2013-01-19 19:20:00,51.6,33.2,29.95,WSW,250,6.6,17.4,49,0.00,,CLR,0.00,VWS V14.01,2013-01-20 00:20:00,
2013-01-19 19:25:00,51.3,32.9,29.98,South,170,6.6,12.2,49,0.00,,CLR,0.00,VWS V14.01,2013-01-20 00:25:00,
2013-01-19 19:30:00,51.3,32.9,29.98,South,177,21.8,27.7,49,0.00,,CLR,0.00,VWS V14.01,2013-01-20 00:30:00,
2013-01-19 19:35:00,50.9,33.4,29.98,South,186,15.9,20.2,51,0.00,,CLR,0.00,VWS V14.01,2013-01-20 00:35:00,
2013-01-19 19:41:00,50.9,33.4,29.95,SSW,196,8.9,16.0,51,0.00,,CLR,0.00,VWS V14.01,2013-01-20 00:41:00,
2013-01-19 19:46:00,50.9,33.4,29.95,South,186,10.3,13.2,51,0.00,,CLR,0.00,VWS V14.01,2013-01-20 00:46:00,
2013-01-19 19:51:00,50.7,33.3,29.95,SW,235,5.9,15.0,51,0.00,,CLR,0.00,VWS V14.01,2013-01-20 00:51:00,
2013-01-19 19:57:00,51.1,33.6,29.98,South,187,20.3,25.8,51,0.00,,CLR,0.00,VWS V14.01,2013-01-20 00:57:00,
2013-01-19 20:02:00,50.7,33.3,29.98,SW,221,5.9,7.5,51,0.00,,CLR,0.00,VWS V14.01,2013-01-20 01:02:00,
2013-01-19 20:07:00,50.5,33.1,29.98,SSW,199,18.1,23.0,51,0.00,,CLR,0.00,VWS V14.01,2013-01-20 01:07:00,
2013-01-19 20:14:00,50.4,32.9,29.98,WNW,286,5.2,14.1,51,0.00,,CLR,0.00,VWS V14.01,2013-01-20 01:14:00,
2013-01-19 20:19:00,50.4,32.9,29.98,SSE,165,5.9,13.2,51,0.00,,CLR,0.00,VWS V14.01,2013-01-20 01:19:00,
2013-01-19 20:24:00,50.2,32.8,29.98,WSW,247,15.1,25.8,51,0.00,,CLR,0.00,VWS V14.01,2013-01-20 01:24:00,
2013-01-19 20:29:00,50.5,33.1,29.98,South,172,9.6,13.2,51,0.00,,CLR,0.00,VWS V14.01,2013-01-20 01:29:00,
2013-01-19 20:34:00,50.2,33.6,29.98,SW,218,12.5,23.0,53,0.00,,CLR,0.00,VWS V14.01,2013-01-20 01:34:00,
2013-01-19 20:40:00,50.7,33.3,29.98,South,175,5.9,18.3,51,0.00,,CLR,0.00,VWS V14.01,2013-01-20 01:40:00,
2013-01-19 20:45:00,50.2,33.6,29.95,South,171,5.2,12.2,53,0.00,,CLR,0.00,VWS V14.01,2013-01-20 01:45:00,
2013-01-19 20:51:00,50.5,33.9,29.95,SSE,168,9.6,21.1,53,0.00,,CLR,0.00,VWS V14.01,2013-01-20 01:51:00,
2013-01-19 20:56:00,50.5,33.9,29.95,SSW,211,5.9,8.5,53,0.00,,CLR,0.00,VWS V14.01,2013-01-20 01:56:00,
2013-01-19 21:01:00,50.2,33.6,29.95,WSW,254,6.6,15.0,53,0.00,,CLR,0.00,VWS V14.01,2013-01-20 02:01:00,
2013-01-19 21:07:00,50.4,33.8,29.95,SW,220,12.5,18.3,53,0.00,,CLR,0.00,VWS V14.01,2013-01-20 02:07:00,
2013-01-19 21:12:00,49.8,34.0,29.95,SSW,193,6.6,14.1,54,0.00,,CLR,0.00,VWS V14.01,2013-01-20 02:12:00,
2013-01-19 21:17:00,49.5,33.7,29.95,WNW,290,13.7,17.4,54,0.00,,CLR,0.00,VWS V14.01,2013-01-20 02:17:00,
2013-01-19 21:23:00,50.2,34.4,29.95,SSW,201,13.3,25.8,54,0.00,,CLR,0.00,VWS V14.01,2013-01-20 02:23:00,
2013-01-19 21:29:00,49.6,34.7,29.95,SSW,201,5.2,12.2,56,0.00,,CLR,0.00,VWS V14.01,2013-01-20 02:29:00,
2013-01-19 21:34:00,50.0,34.2,29.95,SW,227,6.6,8.5,54,0.00,,CLR,0.00,VWS V14.01,2013-01-20 02:34:00,
2013-01-19 21:39:00,49.6,34.7,29.95,WSW,246,12.5,27.7,56,0.00,,CLR,0.00,VWS V14.01,2013-01-20 02:39:00,
2013-01-19 21:44:00,49.1,34.9,29.95,WSW,240,4.4,12.2,58,0.00,,CLR,0.00,VWS V14.01,2013-01-20 02:44:00,
2013-01-19 21:49:00,49.5,35.2,29.95,SSW,193,10.3,33.4,58,0.00,,CLR,0.00,VWS V14.01,2013-01-20 02:49:00,
2013-01-19 21:54:00,49.3,35.1,29.98,SSW,199,10.3,18.3,58,0.00,,CLR,0.00,VWS V14.01,2013-01-20 02:54:00,
2013-01-19 22:00:00,48.9,35.5,29.98,SSW,211,6.6,8.5,60,0.00,,CLR,0.00,VWS V14.01,2013-01-20 03:00:00,
2013-01-19 22:05:00,49.3,35.8,29.98,South,187,11.8,17.4,60,0.00,,CLR,0.00,VWS V14.01,2013-01-20 03:05:00,
2013-01-19 22:10:00,49.1,36.3,29.98,WSW,253,13.7,20.2,61,0.00,,CLR,0.00,VWS V14.01,2013-01-20 03:10:00,
2013-01-19 22:15:00,49.5,36.7,29.98,SW,217,12.5,16.9,61,0.00,,CLR,0.00,VWS V14.01,2013-01-20 03:15:00,
2013-01-19 22:20:00,49.6,36.8,29.98,SSW,210,5.2,16.9,61,0.00,,CLR,0.00,VWS V14.01,2013-01-20 03:20:00,
2013-01-19 22:26:00,48.9,36.2,29.98,West,271,5.9,14.1,61,0.00,,CLR,0.00,VWS V14.01,2013-01-20 03:26:00,
2013-01-19 22:31:00,48.9,36.8,29.98,SSW,198,4.4,8.5,63,0.00,,CLR,0.00,VWS V14.01,2013-01-20 03:31:00,
2013-01-19 22:36:00,48.9,36.8,29.98,WSW,244,8.9,11.3,63,0.00,,CLR,0.00,VWS V14.01,2013-01-20 03:36:00,
2013-01-19 22:41:00,48.7,36.7,29.98,SW,217,10.3,13.2,63,0.00,,CLR,0.00,VWS V14.01,2013-01-20 03:41:00,
2013-01-19 22:46:00,50.2,37.3,29.98,WSW,240,10.3,16.0,61,0.00,,CLR,0.00,VWS V14.01,2013-01-20 03:46:00,
2013-01-19 22:52:00,49.5,37.4,29.98,SW,229,9.6,16.0,63,0.00,,CLR,0.00,VWS V14.01,2013-01-20 03:52:00,
2013-01-19 22:56:00,48.7,36.7,29.98,WSW,253,11.8,15.0,63,0.00,,CLR,0.00,VWS V14.01,2013-01-20 03:56:00,
2013-01-19 23:02:00,49.3,37.2,29.98,WSW,254,5.2,15.0,63,0.00,,CLR,0.00,VWS V14.01,2013-01-20 04:02:00,
2013-01-19 23:07:00,48.9,36.8,29.98,West,259,13.7,17.4,63,0.00,,CLR,0.00,VWS V14.01,2013-01-20 04:07:00,
2013-01-19 23:12:00,48.4,37.0,29.98,WSW,245,13.3,16.9,65,0.00,,CLR,0.00,VWS V14.01,2013-01-20 04:12:00,
2013-01-19 23:17:00,49.5,38.0,29.98,SSE,152,6.6,8.5,65,0.00,,CLR,0.00,VWS V14.01,2013-01-20 04:17:00,
2013-01-19 23:23:00,48.7,37.4,29.98,WSW,247,6.6,22.1,65,0.00,,CLR,0.00,VWS V14.01,2013-01-20 04:23:00,
2013-01-19 23:28:00,48.0,37.3,29.98,SSW,213,10.3,24.0,66,0.00,,CLR,0.00,VWS V14.01,2013-01-20 04:28:00,
2013-01-19 23:33:00,48.4,37.7,29.98,West,260,14.4,18.3,66,0.00,,CLR,0.00,VWS V14.01,2013-01-20 04:33:00,
2013-01-19 23:38:00,48.7,38.0,29.98,WSW,243,8.9,23.0,66,0.00,,CLR,0.00,VWS V14.01,2013-01-20 04:38:00,
2013-01-19 23:44:00,48.0,38.0,29.98,SSE,157,5.9,17.4,68,0.00,,CLR,0.00,VWS V14.01,2013-01-20 04:44:00,
2013-01-19 23:49:00,48.4,38.3,29.98,South,187,9.6,16.9,68,0.00,,CLR,0.00,VWS V14.01,2013-01-20 04:49:00,
2013-01-19 23:54:00,48.4,38.3,29.98,SW,224,6.6,13.2,68,0.00,,CLR,0.00,VWS V14.01,2013-01-20 04:54:00,
2013-01-19 23:59:00,47.7,38.3,29.98,South,172,5.2,6.6,70,0.00,,CLR,0.00,VWS V14.01,2013-01-20 04:59:00,